createdAt,value
2023-02-18T00:01:51.307Z,96465.91
2023-02-18T00:04:18.902Z,96462.63
2023-02-18T00:06:48.205Z,96464.56
2023-02-18T00:09:15.766Z,96465.25
2023-02-18T00:11:44.240Z,96461.66
2023-02-18T00:14:14.070Z,96460.81
2023-02-18T00:16:43.234Z,96449.78
2023-02-18T00:19:13.525Z,96454.72
2023-02-18T00:21:42.329Z,96447.97
2023-02-18T00:24:15.683Z,96445.66
2023-02-18T00:26:45.161Z,96450.06
2023-02-18T00:29:13.131Z,96440.00
2023-02-18T00:31:43.149Z,96439.72
2023-02-18T00:34:11.917Z,96450.72
2023-02-18T00:36:39.985Z,96461.25
2023-02-18T00:39:09.741Z,96446.91
2023-02-18T00:41:39.404Z,96456.66
2023-02-18T00:44:07.525Z,96460.81
2023-02-18T00:46:36.018Z,96449.63
2023-02-18T00:49:04.616Z,96450.38
2023-02-18T00:51:32.560Z,96445.53
2023-02-18T00:54:00.826Z,96446.16
2023-02-18T00:56:28.676Z,96447.16
2023-02-18T00:58:57.763Z,96445.19
2023-02-18T01:01:25.776Z,96449.81
2023-02-18T01:03:53.647Z,96439.94
2023-02-18T01:06:22.215Z,96442.88
2023-02-18T01:08:50.368Z,96446.34
2023-02-18T01:11:18.195Z,96438.13
2023-02-18T01:13:46.711Z,96429.69
2023-02-18T01:16:16.960Z,96434.31
2023-02-18T01:18:47.486Z,96428.38
2023-02-18T01:21:15.469Z,96420.47
2023-02-18T01:23:44.484Z,96423.88
2023-02-18T01:26:13.060Z,96421.59
2023-02-18T01:28:42.331Z,96412.50
2023-02-18T01:31:12.546Z,96408.91
2023-02-18T01:33:44.707Z,96412.03
2023-02-18T01:36:12.853Z,96412.84
2023-02-18T01:38:40.961Z,96410.22
2023-02-18T01:41:08.820Z,96419.47
2023-02-18T01:43:39.376Z,96417.66
2023-02-18T01:46:13.951Z,96413.69
2023-02-18T01:48:47.365Z,96419.16
2023-02-18T01:51:18.055Z,96408.56
2023-02-18T01:53:51.905Z,96407.59
2023-02-18T01:56:25.601Z,96399.50
2023-02-18T01:58:56.439Z,96399.66
2023-02-18T02:01:24.922Z,96401.63
2023-02-18T02:03:54.232Z,96399.34
2023-02-18T02:06:24.316Z,96403.13
2023-02-18T02:08:56.326Z,96403.09
2023-02-18T02:11:36.109Z,96402.31
2023-02-18T02:14:17.405Z,96392.06
2023-02-18T02:16:55.311Z,96404.97
2023-02-18T02:19:47.881Z,96405.94
2023-02-18T02:22:47.656Z,96404.94
2023-02-18T02:25:32.955Z,96404.63
2023-02-18T02:28:32.445Z,96401.63
2023-02-18T02:31:25.654Z,96398.34
2023-02-18T02:34:33.050Z,96398.34
2023-02-18T02:37:09.944Z,96401.28
2023-02-18T02:39:44.937Z,96393.84
2023-02-18T02:42:21.673Z,96387.78
2023-02-18T02:44:57.469Z,96388.06
2023-02-18T02:47:33.680Z,96387.41
2023-02-18T02:50:05.941Z,96378.50
2023-02-18T02:52:39.738Z,96383.97
2023-02-18T02:55:10.604Z,96383.50
2023-02-18T02:57:50.636Z,96381.69
2023-02-18T03:00:42.186Z,96394.06
2023-02-18T03:03:24.323Z,96391.91
2023-02-18T03:06:24.477Z,96382.34
2023-02-18T03:09:05.216Z,96382.81
2023-02-18T03:11:43.408Z,96373.13
2023-02-18T03:14:23.412Z,96377.88
2023-02-18T03:17:00.580Z,96371.59
2023-02-18T03:19:33.635Z,96372.09
2023-02-18T03:22:06.738Z,96372.13
2023-02-18T03:24:40.234Z,96377.41
2023-02-18T03:27:13.696Z,96373.94
2023-02-18T03:29:43.407Z,96369.97
2023-02-18T03:32:15.065Z,96366.69
2023-02-18T03:34:48.803Z,96370.31
2023-02-18T03:37:17.059Z,96373.91
2023-02-18T03:39:51.146Z,96374.28
2023-02-18T03:42:19.531Z,96372.59
2023-02-18T03:44:47.514Z,96389.13
2023-02-18T03:47:15.436Z,96395.41
2023-02-18T03:49:43.696Z,96376.72
2023-02-18T03:52:11.425Z,96376.25
2023-02-18T03:54:39.965Z,96366.50
2023-02-18T03:57:10.482Z,96368.97
2023-02-18T03:59:38.721Z,96366.34
2023-02-18T04:02:06.502Z,96367.16
2023-02-18T04:04:35.225Z,96358.78
2023-02-18T04:07:02.814Z,96362.06
2023-02-18T04:09:30.908Z,96359.09
2023-02-18T04:11:58.495Z,96375.25
2023-02-18T04:14:27.792Z,96362.41
2023-02-18T04:16:56.379Z,96371.47
2023-02-18T04:19:24.039Z,96365.38
2023-02-18T04:21:52.226Z,96366.69
2023-02-18T04:24:20.320Z,96378.88
2023-02-18T04:26:48.058Z,96359.13
2023-02-18T04:29:15.632Z,96368.63
2023-02-18T04:31:45.279Z,96381.47
2023-02-18T04:34:12.932Z,96367.31
2023-02-18T04:36:41.040Z,96370.97
2023-02-18T04:39:08.630Z,96363.22
2023-02-18T04:44:22.973Z,96367.97
2023-02-18T04:46:51.920Z,96384.44
2023-02-18T04:49:19.598Z,96387.75
2023-02-18T04:51:47.859Z,96383.78
2023-02-18T04:54:15.710Z,96379.50
2023-02-18T04:56:44.541Z,96375.88
2023-02-18T04:59:12.495Z,96369.59
2023-02-18T05:01:40.329Z,96377.50
2023-02-18T05:04:09.548Z,96377.84
2023-02-18T05:06:39.846Z,96385.13
2023-02-18T05:09:07.816Z,96374.06
2023-02-18T05:11:36.202Z,96369.94
2023-02-18T05:14:03.981Z,96366.66
2023-02-18T05:16:31.898Z,96361.53
2023-02-18T05:18:59.509Z,96363.03
2023-02-18T05:21:29.227Z,96363.03
2023-02-18T05:23:56.815Z,96363.03
2023-02-18T05:26:24.875Z,96359.03
2023-02-18T05:28:52.472Z,96368.13
2023-02-18T05:31:20.436Z,96362.19
2023-02-18T05:33:48.474Z,96362.69
2023-02-18T05:36:16.396Z,96357.41
2023-02-18T05:38:45.313Z,96361.53
2023-02-18T05:41:13.500Z,96363.16
2023-02-18T05:43:55.040Z,96365.94
2023-02-18T05:46:23.499Z,96359.69
2023-02-18T05:48:51.074Z,96360.03
2023-02-18T05:51:19.215Z,96360.38
2023-02-18T05:53:48.175Z,96362.03
2023-02-18T05:56:16.112Z,96371.41
2023-02-18T05:58:43.688Z,96373.22
2023-02-18T06:01:11.681Z,96381.41
2023-02-18T06:03:39.240Z,96383.84
2023-02-18T06:06:08.558Z,96385.41
2023-02-18T06:08:36.529Z,96378.81
2023-02-18T06:11:05.983Z,96385.41
2023-02-18T06:13:33.845Z,96391.34
2023-02-18T06:16:01.770Z,96379.44
2023-02-18T06:18:30.066Z,96382.28
2023-02-18T06:20:57.697Z,96380.31
2023-02-18T06:23:25.419Z,96379.66
2023-02-18T06:25:53.208Z,96374.22
2023-02-18T06:28:22.735Z,96366.50
2023-02-18T06:30:50.708Z,96369.44
2023-02-18T06:33:19.190Z,96371.94
2023-02-18T06:35:54.931Z,96374.44
2023-02-18T06:38:23.327Z,96366.19
2023-02-18T06:40:50.953Z,96365.66
2023-02-18T06:43:19.795Z,96370.97
2023-02-18T06:45:48.733Z,96377.03
2023-02-18T06:48:17.185Z,96379.22
2023-02-18T06:50:45.193Z,96367.03
2023-02-18T06:53:13.031Z,96363.69
2023-02-18T06:55:41.765Z,96365.69
2023-02-18T06:58:10.890Z,96362.09
2023-02-18T07:00:38.793Z,96357.13
2023-02-18T07:03:08.740Z,96336.66
2023-02-18T07:05:36.335Z,96347.22
2023-02-18T07:08:04.211Z,96335.69
2023-02-18T07:10:31.778Z,96349.38
2023-02-18T07:12:59.793Z,96351.50
2023-02-18T07:15:27.988Z,96344.94
2023-02-18T07:17:55.938Z,96358.47
2023-02-18T07:20:25.864Z,96351.84
2023-02-18T07:22:54.931Z,96347.19
2023-02-18T07:25:23.458Z,96344.03
2023-02-18T07:27:52.202Z,96354.28
2023-02-18T07:30:20.303Z,96351.47
2023-02-18T07:32:49.041Z,96356.75
2023-02-18T07:35:17.431Z,96346.19
2023-02-18T07:37:48.172Z,96331.94
2023-02-18T07:40:18.624Z,96333.19
2023-02-18T07:42:46.305Z,96333.75
2023-02-18T07:45:14.357Z,96351.44
2023-02-18T07:47:42.808Z,96325.31
2023-02-18T07:50:11.689Z,96328.19
2023-02-18T07:52:39.461Z,96332.53
2023-02-18T07:55:09.562Z,96330.09
2023-02-18T07:57:57.539Z,96312.41
2023-02-18T08:00:25.628Z,96329.44
2023-02-18T08:02:53.632Z,96329.75
2023-02-18T08:05:21.492Z,96317.25
2023-02-18T08:07:49.315Z,96318.25
2023-02-18T08:10:18.300Z,96322.84
2023-02-18T08:12:46.184Z,96322.75
2023-02-18T08:15:14.266Z,96294.22
2023-02-18T08:17:42.092Z,96322.19
2023-02-18T08:20:10.606Z,96329.06
2023-02-18T08:22:38.750Z,96324.69
2023-02-18T08:25:07.273Z,96319.75
2023-02-18T08:27:36.438Z,96318.22
2023-02-18T08:30:04.568Z,96296.09
2023-02-18T08:32:32.228Z,96292.75
2023-02-18T08:34:59.916Z,96293.09
2023-02-18T08:37:27.697Z,96299.75
2023-02-18T08:39:55.487Z,96301.28
2023-02-18T08:42:23.196Z,96287.13
2023-02-18T08:44:52.516Z,96318.78
2023-02-18T08:48:18.808Z,96292.66
2023-02-18T08:50:08.197Z,96321.03
2023-02-18T08:52:35.781Z,96300.47
2023-02-18T08:55:05.669Z,96275.53
2023-02-18T08:57:33.272Z,96281.53
2023-02-18T09:00:02.725Z,96283.06
2023-02-18T09:02:30.314Z,96288.03
2023-02-18T09:04:57.956Z,96276.47
2023-02-18T09:07:25.527Z,96295.84
2023-02-18T09:09:53.655Z,96288.91
2023-02-18T09:12:21.465Z,96284.38
2023-02-18T09:14:49.612Z,96285.63
2023-02-18T09:17:18.597Z,96295.41
2023-02-18T09:19:47.091Z,96282.34
2023-02-18T09:22:15.118Z,96283.94
2023-02-18T09:24:43.474Z,96273.72
2023-02-18T09:27:11.408Z,96254.72
2023-02-18T09:29:40.983Z,96265.06
2023-02-18T09:32:11.075Z,96275.63
2023-02-18T09:34:40.346Z,96263.81
2023-02-18T09:37:07.947Z,96259.97
2023-02-18T09:39:35.805Z,96263.97
2023-02-18T09:42:05.528Z,96276.31
2023-02-18T09:44:36.159Z,96260.44
2023-02-18T09:47:07.367Z,96256.44
2023-02-18T09:49:38.705Z,96246.16
2023-02-18T09:52:13.724Z,96223.88
2023-02-18T09:54:42.199Z,96243.28
2023-02-18T09:57:22.423Z,96235.69
2023-02-18T09:59:57.449Z,96218.38
2023-02-18T10:02:25.861Z,96231.13
2023-02-18T10:04:54.479Z,96240.13
2023-02-18T10:07:28.566Z,96234.22
2023-02-18T10:09:58.575Z,96222.16
2023-02-18T10:12:27.549Z,96228.75
2023-02-18T10:14:57.202Z,96216.78
2023-02-18T10:17:27.244Z,96235.72
2023-02-18T10:19:57.277Z,96217.50
2023-02-18T10:22:28.980Z,96208.09
2023-02-18T10:24:59.476Z,96210.66
2023-02-18T10:27:29.622Z,96203.47
2023-02-18T10:30:02.737Z,96194.38
2023-02-18T10:32:36.480Z,96199.09
2023-02-18T10:35:16.771Z,96201.69
2023-02-18T10:37:55.758Z,96197.00
2023-02-18T10:40:32.008Z,96194.72
2023-02-18T10:43:11.816Z,96172.28
2023-02-18T10:45:46.853Z,96194.69
2023-02-18T10:48:33.203Z,96188.31
2023-02-18T10:51:08.151Z,96167.53
2023-02-18T10:53:39.905Z,96185.72
2023-02-18T10:56:09.672Z,96144.44
2023-02-18T10:58:45.619Z,96188.63
2023-02-18T11:01:18.071Z,96177.06
2023-02-18T11:03:47.609Z,96167.78
2023-02-18T11:06:23.888Z,96148.63
2023-02-18T11:08:55.616Z,96166.75
2023-02-18T11:11:26.944Z,96170.25
2023-02-18T11:13:55.877Z,96159.41
2023-02-18T11:16:25.955Z,96165.97
2023-02-18T11:18:53.588Z,96152.34
2023-02-18T11:21:27.634Z,96164.72
2023-02-18T11:23:57.874Z,96163.44
2023-02-18T11:26:31.469Z,96141.47
2023-02-18T11:29:03.878Z,96148.56
2023-02-18T11:31:41.994Z,96126.84
2023-02-18T11:34:17.829Z,96145.03
2023-02-18T11:36:46.608Z,96146.09
2023-02-18T11:39:21.861Z,96152.09
2023-02-18T11:41:57.711Z,96125.53
2023-02-18T11:44:29.680Z,96131.50
2023-02-18T11:47:00.314Z,96152.69
2023-02-18T11:49:29.852Z,96144.63
2023-02-18T11:52:07.053Z,96142.13
2023-02-18T11:54:36.484Z,96149.88
2023-02-18T11:57:07.407Z,96162.56
2023-02-18T11:59:38.793Z,96142.81
2023-02-18T12:02:27.195Z,96130.16
2023-02-18T12:05:02.340Z,96115.56
2023-02-18T12:07:35.495Z,96101.84
2023-02-18T12:10:12.540Z,96121.22
2023-02-18T12:12:47.217Z,96120.84
2023-02-18T12:15:18.930Z,96127.34
2023-02-18T12:18:03.057Z,96142.59
2023-02-18T12:20:54.336Z,96120.66
2023-02-18T12:23:29.388Z,96128.22
2023-02-18T12:26:08.805Z,96107.75
2023-02-18T12:28:53.021Z,96108.44
2023-02-18T12:31:34.749Z,96128.13
2023-02-18T12:34:26.165Z,96121.63
2023-02-18T12:37:07.086Z,96120.31
2023-02-18T12:39:50.784Z,96108.34
2023-02-18T12:42:36.659Z,96090.84
2023-02-18T12:45:29.134Z,96111.75
2023-02-18T12:48:12.312Z,96105.50
2023-02-18T12:50:56.890Z,96095.03
2023-02-18T12:53:41.573Z,96102.50
2023-02-18T12:56:34.332Z,96099.63
2023-02-18T12:59:13.446Z,96095.56
2023-02-18T13:01:52.235Z,96090.34
2023-02-18T13:04:28.397Z,96080.50
2023-02-18T13:07:35.151Z,96088.38
2023-02-18T13:10:29.509Z,96073.78
2023-02-18T13:13:05.560Z,96082.47
2023-02-18T13:15:40.413Z,96067.41
2023-02-18T13:18:14.280Z,96067.66
2023-02-18T13:20:44.624Z,96058.38
2023-02-18T13:23:20.176Z,96071.72
2023-02-18T13:25:50.353Z,96079.19
2023-02-18T13:28:25.520Z,96059.41
2023-02-18T13:31:06.348Z,96054.25
2023-02-18T13:33:42.690Z,96060.41
2023-02-18T13:36:18.987Z,96053.06
2023-02-18T13:38:57.278Z,96065.38
2023-02-18T13:41:27.359Z,96061.88
2023-02-18T13:43:55.032Z,96060.34
2023-02-18T13:46:25.441Z,96044.28
2023-02-18T13:48:55.689Z,96065.84
2023-02-18T13:51:31.784Z,96053.66
2023-02-18T13:54:04.644Z,96049.84
2023-02-18T13:56:35.241Z,96024.31
2023-02-18T13:59:09.286Z,96052.06
2023-02-18T14:01:42.564Z,96048.44
2023-02-18T14:04:49.406Z,96053.94
2023-02-18T14:07:30.428Z,96036.59
2023-02-18T14:09:59.330Z,96069.09
2023-02-18T14:12:38.717Z,96053.22
2023-02-18T14:15:43.929Z,96068.72
2023-02-18T14:18:26.564Z,96068.28
2023-02-18T14:21:05.653Z,96061.34
2023-02-18T14:23:45.040Z,96072.41
2023-02-18T14:26:25.294Z,96062.66
2023-02-18T14:29:00.108Z,96068.88
2023-02-18T14:31:42.716Z,96054.59
2023-02-18T14:34:48.274Z,96050.38
2023-02-18T14:37:50.903Z,96058.69
2023-02-18T14:40:28.011Z,96057.53
2023-02-18T14:43:06.134Z,96055.16
2023-02-18T14:45:51.849Z,96051.72
2023-02-18T14:48:36.796Z,96031.97
2023-02-18T14:51:05.082Z,96040.63
2023-02-18T14:53:46.303Z,96038.59
2023-02-18T14:56:16.820Z,96036.69
2023-02-18T14:58:47.492Z,96025.25
2023-02-18T15:01:20.533Z,96043.41
2023-02-18T15:03:49.440Z,96036.66
2023-02-18T15:06:25.067Z,96034.78
2023-02-18T15:08:54.258Z,96031.78
2023-02-18T15:11:24.710Z,96038.09
2023-02-18T15:13:52.972Z,96038.16
2023-02-18T15:16:26.174Z,96028.88
2023-02-18T15:18:58.054Z,96024.69
2023-02-18T15:21:28.813Z,96033.28
2023-02-18T15:24:06.175Z,96020.28
2023-02-18T15:26:33.973Z,96031.25
2023-02-18T15:29:04.856Z,96010.59
2023-02-18T15:31:38.334Z,96021.91
2023-02-18T15:34:28.083Z,96015.44
2023-02-18T15:36:56.273Z,96033.31
2023-02-18T15:39:26.222Z,96035.53
2023-02-18T15:41:56.186Z,96030.09
2023-02-18T15:44:26.653Z,96034.03
2023-02-18T15:46:54.550Z,96047.56
2023-02-18T15:49:25.314Z,96039.31
2023-02-18T15:51:58.734Z,96040.50
2023-02-18T15:54:28.807Z,96031.03
2023-02-18T15:57:01.583Z,96028.81
2023-02-18T15:59:33.869Z,96024.84
2023-02-18T16:02:13.183Z,96028.44
2023-02-18T16:04:42.926Z,96027.13
2023-02-18T16:07:22.340Z,96029.16
2023-02-18T16:09:52.399Z,96033.31
2023-02-18T16:12:28.707Z,96029.78
2023-02-18T16:14:58.397Z,96019.19
2023-02-18T16:17:28.510Z,96031.47
2023-02-18T16:20:04.855Z,96027.66
2023-02-18T16:22:38.436Z,96024.53
2023-02-18T16:25:18.482Z,96026.22
2023-02-18T16:27:52.688Z,96025.50
2023-02-18T16:30:23.526Z,96038.00
2023-02-18T16:32:51.966Z,96021.63
2023-02-18T16:35:21.150Z,96030.69
2023-02-18T16:37:50.166Z,96034.09
2023-02-18T16:40:30.205Z,96032.34
2023-02-18T16:43:00.250Z,96023.69
2023-02-18T16:45:35.472Z,96036.59
2023-02-18T16:48:03.780Z,96038.53
2023-02-18T16:50:34.253Z,96038.66
2023-02-18T16:53:02.048Z,96049.75
2023-02-18T16:55:31.886Z,96053.97
2023-02-18T16:57:59.589Z,96049.03
2023-02-18T17:00:28.015Z,96045.00
2023-02-18T17:02:58.621Z,96044.28
2023-02-18T17:05:28.522Z,96040.25
2023-02-18T17:07:56.413Z,96050.41
2023-02-18T17:10:24.785Z,96039.81
2023-02-18T17:12:53.728Z,96046.19
2023-02-18T17:15:31.042Z,96049.53
2023-02-18T17:17:59.616Z,96057.22
2023-02-18T17:20:28.673Z,96051.22
2023-02-18T17:22:56.860Z,96068.25
2023-02-18T17:25:32.311Z,96074.66
2023-02-18T17:28:02.227Z,96076.84
2023-02-18T17:30:30.123Z,96072.63
2023-02-18T17:33:01.754Z,96075.38
2023-02-18T17:35:30.918Z,96073.25
2023-02-18T17:37:58.570Z,96074.47
2023-02-18T17:40:28.194Z,96082.13
2023-02-18T17:42:56.834Z,96080.88
2023-02-18T17:45:29.679Z,96082.34
2023-02-18T17:47:57.890Z,96090.00
2023-02-18T17:50:26.513Z,96102.22
2023-02-18T17:52:55.297Z,96084.22
2023-02-18T17:55:24.996Z,96091.72
2023-02-18T17:57:53.474Z,96087.06
2023-02-18T18:00:24.484Z,96081.41
2023-02-18T18:02:53.769Z,96096.63
2023-02-18T18:05:24.560Z,96089.88
2023-02-18T18:07:52.571Z,96092.34
2023-02-18T18:10:22.045Z,96092.53
2023-02-18T18:12:50.466Z,96092.28
2023-02-18T18:15:29.310Z,96092.34
2023-02-18T18:17:59.396Z,96083.78
2023-02-18T18:20:29.718Z,96099.09
2023-02-18T18:22:59.411Z,96089.81
2023-02-18T18:25:29.682Z,96086.72
2023-02-18T18:27:57.759Z,96089.06
2023-02-18T18:30:28.116Z,96092.16
2023-02-18T18:32:56.628Z,96090.72
2023-02-18T18:35:28.863Z,96093.91
2023-02-18T18:37:57.509Z,96082.03
2023-02-18T18:40:26.938Z,96079.56
2023-02-18T18:42:55.312Z,96074.38
2023-02-18T18:45:24.577Z,96085.59
2023-02-18T18:47:53.885Z,96077.13
2023-02-18T18:50:23.346Z,96083.69
2023-02-18T18:52:53.919Z,96059.56
2023-02-18T18:55:25.926Z,96081.03
2023-02-18T18:57:55.011Z,96073.94
2023-02-18T19:00:25.251Z,96073.38
2023-02-18T19:02:53.295Z,96063.84
2023-02-18T19:05:25.258Z,96062.06
2023-02-18T19:07:54.829Z,96073.03
2023-02-18T19:10:23.590Z,96075.03
2023-02-18T19:12:51.488Z,96073.03
2023-02-18T19:15:21.336Z,96060.56
2023-02-18T19:17:51.702Z,96062.94
2023-02-18T19:20:21.585Z,96070.13
2023-02-18T19:22:49.292Z,96070.97
2023-02-18T19:25:19.464Z,96079.16
2023-02-18T19:27:48.163Z,96084.75
2023-02-18T19:30:19.077Z,96089.97
2023-02-18T19:32:47.263Z,96081.97
2023-02-18T19:35:14.841Z,96096.19
2023-02-18T19:37:43.050Z,96081.97
2023-02-18T19:40:16.146Z,96077.13
2023-02-18T19:42:45.476Z,96086.25
2023-02-18T19:45:13.448Z,96087.69
2023-02-18T19:47:41.457Z,96094.91
2023-02-18T19:50:10.064Z,96090.28
2023-02-18T19:52:38.016Z,96088.47
2023-02-18T19:55:06.497Z,96087.38
2023-02-18T19:57:35.077Z,96096.13
2023-02-18T20:00:05.858Z,96089.41
2023-02-18T20:02:41.276Z,96093.63
2023-02-18T20:05:11.121Z,96096.75
2023-02-18T20:07:41.717Z,96090.81
2023-02-18T20:10:12.303Z,96093.13
2023-02-18T20:12:40.619Z,96095.94
2023-02-18T20:15:10.200Z,96100.31
2023-02-18T20:17:38.949Z,96091.66
2023-02-18T20:20:07.544Z,96098.66
2023-02-18T20:22:35.444Z,96097.41
2023-02-18T20:25:03.445Z,96106.59
2023-02-18T20:27:31.335Z,96106.47
2023-02-18T20:29:58.934Z,96107.59
2023-02-18T20:32:28.753Z,96107.41
2023-02-18T20:34:56.845Z,96102.69
2023-02-18T20:37:24.904Z,96105.75
2023-02-18T20:39:52.602Z,96107.91
2023-02-18T20:42:20.696Z,96106.47
2023-02-18T20:44:49.263Z,96114.47
2023-02-18T20:47:17.238Z,96108.16
2023-02-18T20:49:46.686Z,96100.69
2023-02-18T20:52:14.597Z,96103.88
2023-02-18T20:54:42.580Z,96115.97
2023-02-18T20:57:10.157Z,96109.53
2023-02-18T20:59:38.016Z,96107.91
2023-02-18T21:02:05.886Z,96118.47
2023-02-18T21:04:33.841Z,96091.91
2023-02-18T21:07:02.768Z,96110.72
2023-02-18T21:09:30.328Z,96102.00
2023-02-18T21:11:57.982Z,96106.47
2023-02-18T21:14:26.027Z,96110.66
2023-02-18T21:16:53.588Z,96113.94
2023-02-18T21:19:22.406Z,96094.25
2023-02-18T21:21:49.998Z,96104.84
2023-02-18T21:24:18.933Z,96101.44
2023-02-18T21:26:46.558Z,96099.31
2023-02-18T21:29:16.964Z,96092.50
2023-02-18T21:31:44.811Z,96110.25
2023-02-18T21:34:14.874Z,96095.84
2023-02-18T21:36:43.661Z,96103.69
2023-02-18T21:39:12.721Z,96094.38
2023-02-18T21:41:41.668Z,96098.97
2023-02-18T21:44:10.193Z,96109.66
2023-02-18T21:46:38.071Z,96102.38
2023-02-18T21:49:07.013Z,96123.31
2023-02-18T21:51:55.596Z,96098.91
2023-02-18T21:54:25.806Z,96106.59
2023-02-18T21:56:55.780Z,96110.34
2023-02-18T21:59:26.687Z,96107.91
2023-02-18T22:01:54.943Z,96111.44
2023-02-18T22:04:23.709Z,96108.47
2023-02-18T22:06:51.272Z,96103.53
2023-02-18T22:09:20.346Z,96102.19
2023-02-18T22:11:47.941Z,96091.94
2023-02-18T22:14:17.473Z,96107.13
2023-02-18T22:16:45.624Z,96097.22
2023-02-18T22:19:15.256Z,96112.53
2023-02-18T22:21:43.535Z,96097.88
2023-02-18T22:24:13.251Z,96106.75
2023-02-18T22:26:41.215Z,96106.47
2023-02-18T22:29:09.855Z,96096.38
2023-02-18T22:31:39.885Z,96106.47
2023-02-18T22:34:07.812Z,96101.16
2023-02-18T22:36:35.510Z,96106.94
2023-02-18T22:39:04.933Z,96111.50
2023-02-18T22:41:33.849Z,96103.19
2023-02-18T22:44:03.628Z,96091.59
2023-02-18T22:46:32.612Z,96095.56
2023-02-18T22:49:04.465Z,96095.91
2023-02-18T22:51:34.208Z,96095.56
2023-02-18T22:54:02.517Z,96090.53
2023-02-18T22:56:30.918Z,96083.25
2023-02-18T22:59:00.783Z,96093.81
2023-02-18T23:01:30.109Z,96078.41
2023-02-18T23:03:59.446Z,96087.69
2023-02-18T23:06:29.140Z,96079.84
2023-02-18T23:08:56.758Z,96091.22
2023-02-18T23:11:25.404Z,96081.41
2023-02-18T23:14:09.431Z,96080.78
2023-02-18T23:16:57.852Z,96073.50
2023-02-18T23:19:27.883Z,96075.34
2023-02-18T23:21:57.053Z,96086.06
2023-02-18T23:24:25.493Z,96072.16
2023-02-18T23:26:53.443Z,96064.09
2023-02-18T23:29:21.912Z,96076.50
2023-02-18T23:31:49.666Z,96065.47
2023-02-18T23:34:18.113Z,96062.09
2023-02-18T23:36:47.293Z,96071.16
2023-02-18T23:39:20.628Z,96069.16
2023-02-18T23:41:48.551Z,96061.66
2023-02-18T23:44:18.431Z,96062.09
2023-02-18T23:46:46.588Z,96054.72
2023-02-18T23:49:16.390Z,96059.09
2023-02-18T23:51:44.999Z,96054.19
2023-02-18T23:54:12.807Z,96053.00
2023-02-18T23:56:42.747Z,96040.53
2023-02-18T23:59:12.359Z,96044.59
